sensor_id;sensor_type;location;lat;lon;timestamp;temperature;humidity
73360;DHT22;63092;43.582;19.528;2023-02-08T00:01:24;-1.50;83.70
73360;DHT22;63092;43.582;19.528;2023-02-08T00:03:50;-1.50;83.70
73360;DHT22;63092;43.582;19.528;2023-02-08T00:06:17;-1.50;84.10
73360;DHT22;63092;43.582;19.528;2023-02-08T00:08:43;-1.50;83.90
73360;DHT22;63092;43.582;19.528;2023-02-08T00:11:09;-1.50;83.00
73360;DHT22;63092;43.582;19.528;2023-02-08T00:13:39;-1.50;84.30
73360;DHT22;63092;43.582;19.528;2023-02-08T00:16:05;-1.40;83.10
73360;DHT22;63092;43.582;19.528;2023-02-08T00:18:31;-1.40;83.70
73360;DHT22;63092;43.582;19.528;2023-02-08T00:20:57;-1.40;83.70
73360;DHT22;63092;43.582;19.528;2023-02-08T00:23:23;-1.40;83.10
73360;DHT22;63092;43.582;19.528;2023-02-08T00:25:49;-1.40;83.90
73360;DHT22;63092;43.582;19.528;2023-02-08T00:28:16;-1.40;83.40
73360;DHT22;63092;43.582;19.528;2023-02-08T00:30:42;-1.40;83.10
73360;DHT22;63092;43.582;19.528;2023-02-08T00:33:08;-1.40;83.50
73360;DHT22;63092;43.582;19.528;2023-02-08T00:35:35;-1.60;84.20
73360;DHT22;63092;43.582;19.528;2023-02-08T00:38:00;-1.60;85.70
73360;DHT22;63092;43.582;19.528;2023-02-08T00:40:26;-1.60;83.50
73360;DHT22;63092;43.582;19.528;2023-02-08T00:42:52;-1.70;82.30
73360;DHT22;63092;43.582;19.528;2023-02-08T00:45:18;-1.80;82.90
73360;DHT22;63092;43.582;19.528;2023-02-08T00:47:44;-1.90;82.40
73360;DHT22;63092;43.582;19.528;2023-02-08T00:50:10;-2.00;82.90
73360;DHT22;63092;43.582;19.528;2023-02-08T00:52:36;-2.10;82.80
73360;DHT22;63092;43.582;19.528;2023-02-08T00:55:02;-2.00;83.00
73360;DHT22;63092;43.582;19.528;2023-02-08T00:57:28;-2.00;83.10
73360;DHT22;63092;43.582;19.528;2023-02-08T00:59:56;-1.90;81.80
73360;DHT22;63092;43.582;19.528;2023-02-08T01:02:21;-2.00;83.00
73360;DHT22;63092;43.582;19.528;2023-02-08T01:04:47;-2.10;83.20
73360;DHT22;63092;43.582;19.528;2023-02-08T01:07:13;-2.10;83.90
73360;DHT22;63092;43.582;19.528;2023-02-08T01:09:38;-1.90;84.20
73360;DHT22;63092;43.582;19.528;2023-02-08T01:12:04;-1.90;83.40
73360;DHT22;63092;43.582;19.528;2023-02-08T01:14:30;-1.80;82.40
73360;DHT22;63092;43.582;19.528;2023-02-08T01:16:56;-1.80;82.40
73360;DHT22;63092;43.582;19.528;2023-02-08T01:19:21;-1.80;81.30
73360;DHT22;63092;43.582;19.528;2023-02-08T01:21:47;-1.80;83.60
73360;DHT22;63092;43.582;19.528;2023-02-08T01:24:14;-1.80;84.40
73360;DHT22;63092;43.582;19.528;2023-02-08T01:26:40;-1.80;83.50
73360;DHT22;63092;43.582;19.528;2023-02-08T01:29:06;-1.70;83.90
73360;DHT22;63092;43.582;19.528;2023-02-08T01:31:37;-1.60;83.30
73360;DHT22;63092;43.582;19.528;2023-02-08T01:34:04;-1.50;82.90
73360;DHT22;63092;43.582;19.528;2023-02-08T01:36:31;-1.40;81.70
73360;DHT22;63092;43.582;19.528;2023-02-08T01:38:57;-1.50;82.70
73360;DHT22;63092;43.582;19.528;2023-02-08T01:41:26;-1.50;81.30
73360;DHT22;63092;43.582;19.528;2023-02-08T01:46:38;-1.40;80.90
73360;DHT22;63092;43.582;19.528;2023-02-08T01:49:09;-1.50;81.90
73360;DHT22;63092;43.582;19.528;2023-02-08T01:54:27;-1.50;82.30
73360;DHT22;63092;43.582;19.528;2023-02-08T01:56:54;-1.50;80.90
73360;DHT22;63092;43.582;19.528;2023-02-08T01:59:22;-1.60;77.70
73360;DHT22;63092;43.582;19.528;2023-02-08T02:01:52;-1.70;77.70
73360;DHT22;63092;43.582;19.528;2023-02-08T02:04:19;-1.70;77.20
73360;DHT22;63092;43.582;19.528;2023-02-08T02:06:52;-1.80;76.10
73360;DHT22;63092;43.582;19.528;2023-02-08T02:09:43;-1.70;76.40
73360;DHT22;63092;43.582;19.528;2023-02-08T02:12:10;-1.70;77.20
73360;DHT22;63092;43.582;19.528;2023-02-08T02:14:37;-1.70;75.30
73360;DHT22;63092;43.582;19.528;2023-02-08T02:17:03;-1.60;76.40
73360;DHT22;63092;43.582;19.528;2023-02-08T02:19:44;-1.50;77.30
73360;DHT22;63092;43.582;19.528;2023-02-08T02:30:59;-1.30;75.10
73360;DHT22;63092;43.582;19.528;2023-02-08T02:39:06;-1.40;74.40
73360;DHT22;63092;43.582;19.528;2023-02-08T02:41:41;-1.30;74.50
73360;DHT22;63092;43.582;19.528;2023-02-08T02:44:34;-1.30;74.30
73360;DHT22;63092;43.582;19.528;2023-02-08T02:49:59;-1.30;75.90
73360;DHT22;63092;43.582;19.528;2023-02-08T02:52:58;-1.20;76.30
73360;DHT22;63092;43.582;19.528;2023-02-08T02:55:27;-1.30;76.10
73360;DHT22;63092;43.582;19.528;2023-02-08T02:57:53;-1.40;76.50
73360;DHT22;63092;43.582;19.528;2023-02-08T03:00:24;-1.30;77.30
73360;DHT22;63092;43.582;19.528;2023-02-08T03:02:50;-1.30;76.60
73360;DHT22;63092;43.582;19.528;2023-02-08T03:05:16;-1.20;76.10
73360;DHT22;63092;43.582;19.528;2023-02-08T03:13:02;-1.20;77.70
73360;DHT22;63092;43.582;19.528;2023-02-08T03:15:39;-1.20;78.40
73360;DHT22;63092;43.582;19.528;2023-02-08T03:18:42;-1.20;79.00
73360;DHT22;63092;43.582;19.528;2023-02-08T03:21:15;-1.40;80.20
73360;DHT22;63092;43.582;19.528;2023-02-08T03:29:38;-1.40;82.00
73360;DHT22;63092;43.582;19.528;2023-02-08T03:32:12;-1.40;82.80
73360;DHT22;63092;43.582;19.528;2023-02-08T03:35:01;-1.40;82.60
73360;DHT22;63092;43.582;19.528;2023-02-08T03:37:44;-1.30;82.20
73360;DHT22;63092;43.582;19.528;2023-02-08T03:40:29;-1.30;83.20
73360;DHT22;63092;43.582;19.528;2023-02-08T03:42:58;-1.30;82.80
73360;DHT22;63092;43.582;19.528;2023-02-08T03:45:49;-1.30;82.90
73360;DHT22;63092;43.582;19.528;2023-02-08T03:48:19;-1.40;82.60
73360;DHT22;63092;43.582;19.528;2023-02-08T03:50:49;-1.40;82.60
73360;DHT22;63092;43.582;19.528;2023-02-08T03:53:18;-1.60;82.70
73360;DHT22;63092;43.582;19.528;2023-02-08T03:55:47;-1.70;83.00
73360;DHT22;63092;43.582;19.528;2023-02-08T03:58:31;-1.80;83.20
73360;DHT22;63092;43.582;19.528;2023-02-08T04:01:11;-1.70;83.20
73360;DHT22;63092;43.582;19.528;2023-02-08T04:03:38;-1.70;84.50
73360;DHT22;63092;43.582;19.528;2023-02-08T04:06:05;-1.60;83.10
73360;DHT22;63092;43.582;19.528;2023-02-08T04:08:30;-1.50;82.80
73360;DHT22;63092;43.582;19.528;2023-02-08T04:10:57;-1.50;82.00
73360;DHT22;63092;43.582;19.528;2023-02-08T04:13:22;-1.50;82.70
73360;DHT22;63092;43.582;19.528;2023-02-08T04:15:48;-1.50;82.20
73360;DHT22;63092;43.582;19.528;2023-02-08T04:18:13;-1.40;83.30
73360;DHT22;63092;43.582;19.528;2023-02-08T04:20:39;-1.40;83.60
73360;DHT22;63092;43.582;19.528;2023-02-08T04:23:05;-1.40;82.50
73360;DHT22;63092;43.582;19.528;2023-02-08T04:25:30;-1.40;83.00
73360;DHT22;63092;43.582;19.528;2023-02-08T04:27:56;-1.40;83.00
73360;DHT22;63092;43.582;19.528;2023-02-08T04:30:22;-1.30;82.40
73360;DHT22;63092;43.582;19.528;2023-02-08T04:32:47;-1.30;82.80
73360;DHT22;63092;43.582;19.528;2023-02-08T04:35:13;-1.40;81.80
73360;DHT22;63092;43.582;19.528;2023-02-08T04:37:39;-1.30;80.70
73360;DHT22;63092;43.582;19.528;2023-02-08T04:40:04;-1.30;81.60
73360;DHT22;63092;43.582;19.528;2023-02-08T04:42:30;-1.20;81.10
73360;DHT22;63092;43.582;19.528;2023-02-08T04:44:56;-1.20;81.40
73360;DHT22;63092;43.582;19.528;2023-02-08T04:47:21;-1.20;81.40
73360;DHT22;63092;43.582;19.528;2023-02-08T04:49:47;-1.10;80.70
73360;DHT22;63092;43.582;19.528;2023-02-08T04:52:13;-1.10;80.40
73360;DHT22;63092;43.582;19.528;2023-02-08T04:54:38;-1.10;80.30
73360;DHT22;63092;43.582;19.528;2023-02-08T04:57:04;-1.10;80.60
73360;DHT22;63092;43.582;19.528;2023-02-08T04:59:30;-1.10;80.80
73360;DHT22;63092;43.582;19.528;2023-02-08T05:01:55;-1.10;79.80
73360;DHT22;63092;43.582;19.528;2023-02-08T05:04:21;-1.10;80.70
73360;DHT22;63092;43.582;19.528;2023-02-08T05:06:47;-1.10;80.40
73360;DHT22;63092;43.582;19.528;2023-02-08T05:09:12;-1.10;80.30
73360;DHT22;63092;43.582;19.528;2023-02-08T05:11:38;-1.10;80.70
73360;DHT22;63092;43.582;19.528;2023-02-08T05:14:04;-1.10;80.20
73360;DHT22;63092;43.582;19.528;2023-02-08T05:16:30;-1.10;80.70
73360;DHT22;63092;43.582;19.528;2023-02-08T05:18:56;-1.30;81.50
73360;DHT22;63092;43.582;19.528;2023-02-08T05:21:21;-1.30;82.40
73360;DHT22;63092;43.582;19.528;2023-02-08T05:23:50;-1.20;82.00
73360;DHT22;63092;43.582;19.528;2023-02-08T05:26:17;-1.20;81.60
73360;DHT22;63092;43.582;19.528;2023-02-08T05:28:42;-1.10;81.50
73360;DHT22;63092;43.582;19.528;2023-02-08T05:31:14;-1.20;81.40
73360;DHT22;63092;43.582;19.528;2023-02-08T05:33:41;-1.10;81.40
73360;DHT22;63092;43.582;19.528;2023-02-08T05:36:07;-1.10;81.50
73360;DHT22;63092;43.582;19.528;2023-02-08T05:38:33;-1.10;81.00
73360;DHT22;63092;43.582;19.528;2023-02-08T05:40:59;-1.10;80.70
73360;DHT22;63092;43.582;19.528;2023-02-08T05:43:24;-1.00;81.50
73360;DHT22;63092;43.582;19.528;2023-02-08T05:45:50;-1.10;81.80
73360;DHT22;63092;43.582;19.528;2023-02-08T05:48:17;-1.10;81.70
73360;DHT22;63092;43.582;19.528;2023-02-08T05:50:43;-1.10;81.90
73360;DHT22;63092;43.582;19.528;2023-02-08T05:53:08;-1.20;82.40
73360;DHT22;63092;43.582;19.528;2023-02-08T05:55:34;-1.20;82.70
73360;DHT22;63092;43.582;19.528;2023-02-08T05:58:00;-1.10;83.60
73360;DHT22;63092;43.582;19.528;2023-02-08T06:00:25;-1.10;83.80
73360;DHT22;63092;43.582;19.528;2023-02-08T06:02:51;-1.20;82.60
73360;DHT22;63092;43.582;19.528;2023-02-08T06:05:17;-1.20;83.40
73360;DHT22;63092;43.582;19.528;2023-02-08T06:07:43;-1.10;83.00
73360;DHT22;63092;43.582;19.528;2023-02-08T06:10:09;-1.20;83.80
73360;DHT22;63092;43.582;19.528;2023-02-08T06:12:35;-1.10;84.20
73360;DHT22;63092;43.582;19.528;2023-02-08T06:15:01;-1.20;84.50
73360;DHT22;63092;43.582;19.528;2023-02-08T06:17:27;-1.20;84.50
73360;DHT22;63092;43.582;19.528;2023-02-08T06:19:52;-1.10;84.30
73360;DHT22;63092;43.582;19.528;2023-02-08T06:22:18;-1.10;84.90
73360;DHT22;63092;43.582;19.528;2023-02-08T06:24:44;-1.10;84.00
73360;DHT22;63092;43.582;19.528;2023-02-08T06:27:09;-1.10;84.10
73360;DHT22;63092;43.582;19.528;2023-02-08T06:29:35;-0.90;84.50
73360;DHT22;63092;43.582;19.528;2023-02-08T06:32:01;-1.00;84.60
73360;DHT22;63092;43.582;19.528;2023-02-08T06:34:26;-1.00;85.40
73360;DHT22;63092;43.582;19.528;2023-02-08T06:36:52;-1.00;85.50
73360;DHT22;63092;43.582;19.528;2023-02-08T06:39:18;-1.10;86.20
73360;DHT22;63092;43.582;19.528;2023-02-08T06:41:43;-1.10;85.50
73360;DHT22;63092;43.582;19.528;2023-02-08T06:44:09;-1.10;84.40
73360;DHT22;63092;43.582;19.528;2023-02-08T06:46:34;-1.10;84.80
73360;DHT22;63092;43.582;19.528;2023-02-08T06:49:00;-1.10;84.70
73360;DHT22;63092;43.582;19.528;2023-02-08T06:51:26;-1.10;85.80
73360;DHT22;63092;43.582;19.528;2023-02-08T06:53:52;-1.10;85.60
73360;DHT22;63092;43.582;19.528;2023-02-08T06:56:18;-0.90;86.10
73360;DHT22;63092;43.582;19.528;2023-02-08T06:58:43;-0.90;85.10
73360;DHT22;63092;43.582;19.528;2023-02-08T07:01:13;-0.90;84.00
73360;DHT22;63092;43.582;19.528;2023-02-08T07:03:39;-0.90;84.70
73360;DHT22;63092;43.582;19.528;2023-02-08T07:06:05;-0.90;84.70
73360;DHT22;63092;43.582;19.528;2023-02-08T07:08:35;-0.80;84.30
73360;DHT22;63092;43.582;19.528;2023-02-08T07:11:06;-0.80;83.60
73360;DHT22;63092;43.582;19.528;2023-02-08T07:13:32;-0.80;83.50
73360;DHT22;63092;43.582;19.528;2023-02-08T07:15:57;-0.80;83.90
73360;DHT22;63092;43.582;19.528;2023-02-08T07:18:23;-0.80;84.00
73360;DHT22;63092;43.582;19.528;2023-02-08T07:20:49;-0.70;83.60
73360;DHT22;63092;43.582;19.528;2023-02-08T07:23:14;-0.80;83.20
73360;DHT22;63092;43.582;19.528;2023-02-08T07:25:40;-0.80;83.60
73360;DHT22;63092;43.582;19.528;2023-02-08T07:28:06;-0.80;84.90
73360;DHT22;63092;43.582;19.528;2023-02-08T07:30:31;-0.80;86.40
73360;DHT22;63092;43.582;19.528;2023-02-08T07:32:57;-0.80;86.60
73360;DHT22;63092;43.582;19.528;2023-02-08T07:35:22;-0.80;86.70
73360;DHT22;63092;43.582;19.528;2023-02-08T07:37:48;-0.80;85.00
73360;DHT22;63092;43.582;19.528;2023-02-08T07:40:14;-0.70;85.70
73360;DHT22;63092;43.582;19.528;2023-02-08T07:42:40;-0.70;85.70
73360;DHT22;63092;43.582;19.528;2023-02-08T07:45:06;-0.60;86.10
73360;DHT22;63092;43.582;19.528;2023-02-08T07:47:31;-0.60;86.50
73360;DHT22;63092;43.582;19.528;2023-02-08T07:49:57;-0.50;86.30
73360;DHT22;63092;43.582;19.528;2023-02-08T07:52:23;-0.50;86.30
73360;DHT22;63092;43.582;19.528;2023-02-08T07:54:48;-0.50;83.30
73360;DHT22;63092;43.582;19.528;2023-02-08T07:57:14;-0.50;85.20
73360;DHT22;63092;43.582;19.528;2023-02-08T07:59:45;-0.50;86.70
73360;DHT22;63092;43.582;19.528;2023-02-08T08:02:13;-0.30;87.90
73360;DHT22;63092;43.582;19.528;2023-02-08T08:04:39;-0.30;86.30
73360;DHT22;63092;43.582;19.528;2023-02-08T08:07:05;-0.30;85.70
73360;DHT22;63092;43.582;19.528;2023-02-08T08:09:30;-0.30;86.00
73360;DHT22;63092;43.582;19.528;2023-02-08T08:11:56;-0.10;84.90
73360;DHT22;63092;43.582;19.528;2023-02-08T08:14:22;-0.20;85.90
73360;DHT22;63092;43.582;19.528;2023-02-08T08:16:47;-0.10;85.60
73360;DHT22;63092;43.582;19.528;2023-02-08T08:19:13;-0.10;84.60
73360;DHT22;63092;43.582;19.528;2023-02-08T08:21:38;0.00;85.70
73360;DHT22;63092;43.582;19.528;2023-02-08T08:24:05;0.10;85.40
73360;DHT22;63092;43.582;19.528;2023-02-08T08:26:31;0.00;84.80
73360;DHT22;63092;43.582;19.528;2023-02-08T08:28:56;0.00;85.40
73360;DHT22;63092;43.582;19.528;2023-02-08T08:31:22;0.00;85.10
73360;DHT22;63092;43.582;19.528;2023-02-08T08:33:48;0.10;87.10
73360;DHT22;63092;43.582;19.528;2023-02-08T08:36:14;0.00;86.00
73360;DHT22;63092;43.582;19.528;2023-02-08T08:38:40;0.00;85.50
73360;DHT22;63092;43.582;19.528;2023-02-08T08:41:11;0.10;84.00
73360;DHT22;63092;43.582;19.528;2023-02-08T08:43:39;0.20;84.10
73360;DHT22;63092;43.582;19.528;2023-02-08T08:46:06;0.20;83.90
73360;DHT22;63092;43.582;19.528;2023-02-08T08:48:33;0.10;82.30
73360;DHT22;63092;43.582;19.528;2023-02-08T08:50:59;-0.10;83.60
73360;DHT22;63092;43.582;19.528;2023-02-08T08:53:25;-0.10;84.50
73360;DHT22;63092;43.582;19.528;2023-02-08T08:55:51;-0.10;84.90
73360;DHT22;63092;43.582;19.528;2023-02-08T08:58:17;0.00;84.40
73360;DHT22;63092;43.582;19.528;2023-02-08T09:00:43;0.00;84.30
73360;DHT22;63092;43.582;19.528;2023-02-08T09:03:09;0.10;85.20
73360;DHT22;63092;43.582;19.528;2023-02-08T09:05:35;0.30;85.70
73360;DHT22;63092;43.582;19.528;2023-02-08T09:08:00;0.40;83.40
73360;DHT22;63092;43.582;19.528;2023-02-08T09:10:28;0.30;84.40
73360;DHT22;63092;43.582;19.528;2023-02-08T09:12:55;0.50;82.80
73360;DHT22;63092;43.582;19.528;2023-02-08T09:15:21;0.40;82.00
73360;DHT22;63092;43.582;19.528;2023-02-08T09:17:47;0.40;82.40
73360;DHT22;63092;43.582;19.528;2023-02-08T09:20:12;0.40;84.10
73360;DHT22;63092;43.582;19.528;2023-02-08T09:22:38;0.40;82.10
73360;DHT22;63092;43.582;19.528;2023-02-08T09:25:04;0.40;83.20
73360;DHT22;63092;43.582;19.528;2023-02-08T09:27:30;0.50;83.20
73360;DHT22;63092;43.582;19.528;2023-02-08T09:29:56;0.50;81.40
73360;DHT22;63092;43.582;19.528;2023-02-08T09:32:21;0.40;84.00
73360;DHT22;63092;43.582;19.528;2023-02-08T09:34:47;0.40;82.30
73360;DHT22;63092;43.582;19.528;2023-02-08T09:37:13;0.60;83.30
73360;DHT22;63092;43.582;19.528;2023-02-08T09:39:41;0.50;80.80
73360;DHT22;63092;43.582;19.528;2023-02-08T09:47:34;0.80;81.10
73360;DHT22;63092;43.582;19.528;2023-02-08T09:50:03;0.70;81.50
73360;DHT22;63092;43.582;19.528;2023-02-08T09:55:43;1.00;80.40
73360;DHT22;63092;43.582;19.528;2023-02-08T09:58:26;1.20;79.00
73360;DHT22;63092;43.582;19.528;2023-02-08T10:00:54;1.30;78.40
73360;DHT22;63092;43.582;19.528;2023-02-08T10:03:38;1.50;76.70
73360;DHT22;63092;43.582;19.528;2023-02-08T10:06:09;1.50;78.30
73360;DHT22;63092;43.582;19.528;2023-02-08T10:08:36;1.70;78.90
73360;DHT22;63092;43.582;19.528;2023-02-08T10:35:02;0.30;82.00
73360;DHT22;63092;43.582;19.528;2023-02-08T10:37:32;0.40;81.70
73360;DHT22;63092;43.582;19.528;2023-02-08T10:48:20;0.50;79.20
73360;DHT22;63092;43.582;19.528;2023-02-08T10:50:48;0.50;78.50
73360;DHT22;63092;43.582;19.528;2023-02-08T10:53:16;0.50;80.20
73360;DHT22;63092;43.582;19.528;2023-02-08T10:55:44;0.50;79.60
73360;DHT22;63092;43.582;19.528;2023-02-08T10:58:19;0.40;78.20
73360;DHT22;63092;43.582;19.528;2023-02-08T11:00:46;0.60;78.10
73360;DHT22;63092;43.582;19.528;2023-02-08T11:03:26;0.70;77.20
73360;DHT22;63092;43.582;19.528;2023-02-08T11:05:53;0.70;77.70
73360;DHT22;63092;43.582;19.528;2023-02-08T11:08:21;0.80;77.20
73360;DHT22;63092;43.582;19.528;2023-02-08T11:11:01;0.70;75.10
73360;DHT22;63092;43.582;19.528;2023-02-08T11:13:47;0.70;75.30
73360;DHT22;63092;43.582;19.528;2023-02-08T11:16:24;0.80;77.60
73360;DHT22;63092;43.582;19.528;2023-02-08T11:18:53;0.80;76.90
73360;DHT22;63092;43.582;19.528;2023-02-08T11:21:35;1.00;76.10
73360;DHT22;63092;43.582;19.528;2023-02-08T11:26:40;0.70;75.50
73360;DHT22;63092;43.582;19.528;2023-02-08T11:29:18;0.80;76.60
73360;DHT22;63092;43.582;19.528;2023-02-08T11:31:57;0.80;76.40
73360;DHT22;63092;43.582;19.528;2023-02-08T11:36:52;0.90;77.80
73360;DHT22;63092;43.582;19.528;2023-02-08T11:40:03;0.70;76.70
73360;DHT22;63092;43.582;19.528;2023-02-08T11:42:40;0.40;76.60
73360;DHT22;63092;43.582;19.528;2023-02-08T11:45:19;0.80;78.20
73360;DHT22;63092;43.582;19.528;2023-02-08T11:47:46;0.90;77.40
73360;DHT22;63092;43.582;19.528;2023-02-08T11:50:26;0.90;76.50
73360;DHT22;63092;43.582;19.528;2023-02-08T11:53:00;1.00;75.80
73360;DHT22;63092;43.582;19.528;2023-02-08T11:55:29;0.90;75.20
73360;DHT22;63092;43.582;19.528;2023-02-08T11:58:23;0.90;74.90
73360;DHT22;63092;43.582;19.528;2023-02-08T12:01:18;1.10;74.30
73360;DHT22;63092;43.582;19.528;2023-02-08T12:03:45;1.10;74.90
73360;DHT22;63092;43.582;19.528;2023-02-08T12:21:46;1.70;73.00
73360;DHT22;63092;43.582;19.528;2023-02-08T12:30:10;1.30;74.90
73360;DHT22;63092;43.582;19.528;2023-02-08T12:41:55;1.50;74.50
73360;DHT22;63092;43.582;19.528;2023-02-08T12:53:02;1.70;72.80
73360;DHT22;63092;43.582;19.528;2023-02-08T12:55:34;1.50;72.20
73360;DHT22;63092;43.582;19.528;2023-02-08T13:00:45;1.60;72.20
73360;DHT22;63092;43.582;19.528;2023-02-08T13:05:51;1.10;72.10
73360;DHT22;63092;43.582;19.528;2023-02-08T13:08:29;1.30;71.70
73360;DHT22;63092;43.582;19.528;2023-02-08T13:11:17;1.20;72.60
73360;DHT22;63092;43.582;19.528;2023-02-08T13:13:43;1.10;71.60
73360;DHT22;63092;43.582;19.528;2023-02-08T13:16:18;1.30;71.90
73360;DHT22;63092;43.582;19.528;2023-02-08T13:21:23;1.10;70.50
73360;DHT22;63092;43.582;19.528;2023-02-08T13:23:50;1.30;70.90
73360;DHT22;63092;43.582;19.528;2023-02-08T13:26:21;1.40;70.30
73360;DHT22;63092;43.582;19.528;2023-02-08T13:28:55;1.50;70.80
73360;DHT22;63092;43.582;19.528;2023-02-08T13:31:29;1.60;69.90
73360;DHT22;63092;43.582;19.528;2023-02-08T13:34:06;1.50;68.60
73360;DHT22;63092;43.582;19.528;2023-02-08T13:36:40;1.60;68.50
73360;DHT22;63092;43.582;19.528;2023-02-08T13:41:54;1.60;68.10
73360;DHT22;63092;43.582;19.528;2023-02-08T13:44:36;1.60;68.40
73360;DHT22;63092;43.582;19.528;2023-02-08T13:47:04;1.50;68.10
73360;DHT22;63092;43.582;19.528;2023-02-08T13:52:53;1.50;65.00
73360;DHT22;63092;43.582;19.528;2023-02-08T14:03:38;1.80;64.40
73360;DHT22;63092;43.582;19.528;2023-02-08T14:06:19;1.80;65.00
73360;DHT22;63092;43.582;19.528;2023-02-08T14:12:01;1.90;66.00
73360;DHT22;63092;43.582;19.528;2023-02-08T14:14:34;2.10;65.70
73360;DHT22;63092;43.582;19.528;2023-02-08T14:17:20;2.20;65.40
73360;DHT22;63092;43.582;19.528;2023-02-08T14:20:00;2.20;65.80
73360;DHT22;63092;43.582;19.528;2023-02-08T14:22:27;2.30;65.50
73360;DHT22;63092;43.582;19.528;2023-02-08T14:24:59;2.30;63.90
73360;DHT22;63092;43.582;19.528;2023-02-08T14:27:39;2.00;62.60
73360;DHT22;63092;43.582;19.528;2023-02-08T14:35:30;1.40;65.70
73360;DHT22;63092;43.582;19.528;2023-02-08T14:40:56;1.20;66.10
73360;DHT22;63092;43.582;19.528;2023-02-08T14:43:35;1.20;67.60
73360;DHT22;63092;43.582;19.528;2023-02-08T14:48:47;1.10;67.70
73360;DHT22;63092;43.582;19.528;2023-02-08T14:51:30;0.90;68.50
73360;DHT22;63092;43.582;19.528;2023-02-08T14:54:26;0.80;67.90
73360;DHT22;63092;43.582;19.528;2023-02-08T14:56:59;0.70;67.90
73360;DHT22;63092;43.582;19.528;2023-02-08T14:59:29;0.50;68.60
73360;DHT22;63092;43.582;19.528;2023-02-08T15:01:56;0.60;69.80
73360;DHT22;63092;43.582;19.528;2023-02-08T15:04:23;0.70;70.40
73360;DHT22;63092;43.582;19.528;2023-02-08T15:07:03;0.80;69.30
73360;DHT22;63092;43.582;19.528;2023-02-08T15:09:37;0.60;69.60
73360;DHT22;63092;43.582;19.528;2023-02-08T15:12:28;0.40;70.70
73360;DHT22;63092;43.582;19.528;2023-02-08T15:14:54;0.40;69.50
73360;DHT22;63092;43.582;19.528;2023-02-08T15:17:38;0.60;69.30
73360;DHT22;63092;43.582;19.528;2023-02-08T15:20:14;0.50;70.20
73360;DHT22;63092;43.582;19.528;2023-02-08T15:22:41;0.50;70.10
73360;DHT22;63092;43.582;19.528;2023-02-08T15:25:28;0.40;70.10
73360;DHT22;63092;43.582;19.528;2023-02-08T15:28:16;0.30;68.60
73360;DHT22;63092;43.582;19.528;2023-02-08T15:30:42;0.30;69.90
73360;DHT22;63092;43.582;19.528;2023-02-08T15:33:13;0.30;71.60
73360;DHT22;63092;43.582;19.528;2023-02-08T15:35:42;0.20;70.20
73360;DHT22;63092;43.582;19.528;2023-02-08T15:38:18;0.30;71.20
73360;DHT22;63092;43.582;19.528;2023-02-08T15:41:22;0.20;70.30
73360;DHT22;63092;43.582;19.528;2023-02-08T15:43:48;0.10;69.50
73360;DHT22;63092;43.582;19.528;2023-02-08T15:46:25;0.10;70.40
73360;DHT22;63092;43.582;19.528;2023-02-08T15:48:52;0.10;70.80
73360;DHT22;63092;43.582;19.528;2023-02-08T15:51:19;0.10;70.80
73360;DHT22;63092;43.582;19.528;2023-02-08T15:53:50;0.10;69.90
73360;DHT22;63092;43.582;19.528;2023-02-08T15:56:18;0.10;70.40
73360;DHT22;63092;43.582;19.528;2023-02-08T15:58:48;0.10;71.00
73360;DHT22;63092;43.582;19.528;2023-02-08T16:01:17;0.00;70.70
73360;DHT22;63092;43.582;19.528;2023-02-08T16:03:54;0.10;71.50
73360;DHT22;63092;43.582;19.528;2023-02-08T16:06:28;0.10;71.70
73360;DHT22;63092;43.582;19.528;2023-02-08T16:08:58;0.00;69.80
73360;DHT22;63092;43.582;19.528;2023-02-08T16:11:30;-0.10;72.40
73360;DHT22;63092;43.582;19.528;2023-02-08T16:13:58;-0.10;71.90
73360;DHT22;63092;43.582;19.528;2023-02-08T16:16:39;-0.20;72.50
73360;DHT22;63092;43.582;19.528;2023-02-08T16:19:30;0.00;72.40
73360;DHT22;63092;43.582;19.528;2023-02-08T16:22:18;-0.10;71.70
73360;DHT22;63092;43.582;19.528;2023-02-08T16:24:47;0.00;71.30
73360;DHT22;63092;43.582;19.528;2023-02-08T16:27:25;0.00;71.40
73360;DHT22;63092;43.582;19.528;2023-02-08T16:29:51;0.10;71.00
73360;DHT22;63092;43.582;19.528;2023-02-08T16:32:29;0.20;71.80
73360;DHT22;63092;43.582;19.528;2023-02-08T16:34:56;0.20;71.10
73360;DHT22;63092;43.582;19.528;2023-02-08T16:37:29;0.10;70.90
73360;DHT22;63092;43.582;19.528;2023-02-08T16:40:00;0.10;71.60
73360;DHT22;63092;43.582;19.528;2023-02-08T16:50:15;0.20;71.90
73360;DHT22;63092;43.582;19.528;2023-02-08T16:52:41;0.20;70.50
73360;DHT22;63092;43.582;19.528;2023-02-08T16:55:14;0.20;71.10
73360;DHT22;63092;43.582;19.528;2023-02-08T16:57:50;0.30;70.10
73360;DHT22;63092;43.582;19.528;2023-02-08T17:02:46;0.30;69.90
73360;DHT22;63092;43.582;19.528;2023-02-08T17:05:13;0.30;70.20
73360;DHT22;63092;43.582;19.528;2023-02-08T17:07:39;0.20;69.70
73360;DHT22;63092;43.582;19.528;2023-02-08T17:10:06;0.20;70.50
73360;DHT22;63092;43.582;19.528;2023-02-08T17:12:32;0.20;69.00
73360;DHT22;63092;43.582;19.528;2023-02-08T17:14:58;0.10;68.50
73360;DHT22;63092;43.582;19.528;2023-02-08T17:17:23;0.20;69.10
73360;DHT22;63092;43.582;19.528;2023-02-08T17:19:49;0.30;70.00
73360;DHT22;63092;43.582;19.528;2023-02-08T17:22:16;0.30;69.40
73360;DHT22;63092;43.582;19.528;2023-02-08T17:24:41;0.20;68.90
73360;DHT22;63092;43.582;19.528;2023-02-08T17:27:11;0.20;69.10
73360;DHT22;63092;43.582;19.528;2023-02-08T17:29:38;0.10;69.50
73360;DHT22;63092;43.582;19.528;2023-02-08T17:32:04;0.00;68.70
73360;DHT22;63092;43.582;19.528;2023-02-08T17:34:29;-0.20;70.00
73360;DHT22;63092;43.582;19.528;2023-02-08T17:36:55;-0.20;70.40
73360;DHT22;63092;43.582;19.528;2023-02-08T17:39:21;-0.20;68.50
73360;DHT22;63092;43.582;19.528;2023-02-08T17:41:46;-0.10;69.30
73360;DHT22;63092;43.582;19.528;2023-02-08T17:44:12;-0.30;70.00
73360;DHT22;63092;43.582;19.528;2023-02-08T17:46:39;-0.30;70.80
73360;DHT22;63092;43.582;19.528;2023-02-08T17:49:05;-0.30;71.00
73360;DHT22;63092;43.582;19.528;2023-02-08T17:51:31;-0.20;70.80
73360;DHT22;63092;43.582;19.528;2023-02-08T17:53:58;-0.20;70.60
73360;DHT22;63092;43.582;19.528;2023-02-08T17:56:28;-0.20;70.30
73360;DHT22;63092;43.582;19.528;2023-02-08T17:58:55;-0.30;70.60
73360;DHT22;63092;43.582;19.528;2023-02-08T18:01:24;-0.40;70.60
73360;DHT22;63092;43.582;19.528;2023-02-08T18:03:51;-0.30;71.30
73360;DHT22;63092;43.582;19.528;2023-02-08T18:06:18;-0.30;70.50
73360;DHT22;63092;43.582;19.528;2023-02-08T18:08:44;-0.30;70.40
73360;DHT22;63092;43.582;19.528;2023-02-08T18:11:12;-0.30;70.90
73360;DHT22;63092;43.582;19.528;2023-02-08T18:13:42;-0.30;70.40
73360;DHT22;63092;43.582;19.528;2023-02-08T18:16:11;-0.30;71.50
73360;DHT22;63092;43.582;19.528;2023-02-08T18:18:37;-0.30;72.40
73360;DHT22;63092;43.582;19.528;2023-02-08T18:21:17;-0.30;71.80
73360;DHT22;63092;43.582;19.528;2023-02-08T18:23:43;-0.20;70.90